sensor_id;sensor_type;location;lat;lon;timestamp;P1;durP1;ratioP1;P2;durP2;ratioP2
74241;SDS011;62599;49.146;10.426;2022-07-29T16:32:44;4.40;;;3.35;;
74241;SDS011;62599;49.146;10.426;2022-07-29T16:35:10;3.63;;;2.90;;
74241;SDS011;62599;49.146;10.426;2022-07-29T16:37:36;2.67;;;2.47;;
74241;SDS011;62599;49.146;10.426;2022-07-29T16:42:49;4.32;;;3.95;;
74241;SDS011;62599;49.146;10.426;2022-07-29T16:47:54;5.32;;;2.67;;
74241;SDS011;62599;49.146;10.426;2022-07-29T16:50:21;4.53;;;2.35;;
74241;SDS011;62599;49.146;10.426;2022-07-29T16:52:52;5.00;;;2.80;;
74241;SDS011;62599;49.146;10.426;2022-07-29T16:55:17;3.65;;;2.20;;
74241;SDS011;62599;49.146;10.426;2022-07-29T17:00:11;2.72;;;2.42;;
74241;SDS011;62599;49.146;10.426;2022-07-29T17:02:37;3.10;;;2.85;;
74241;SDS011;62599;49.146;10.426;2022-07-29T17:05:04;2.42;;;2.22;;
74241;SDS011;62599;49.146;10.426;2022-07-29T17:07:29;2.40;;;2.28;;
74241;SDS011;62599;49.146;10.426;2022-07-29T17:12:43;3.30;;;2.55;;
74241;SDS011;62599;49.146;10.426;2022-07-29T17:15:24;5.35;;;3.63;;
74241;SDS011;62599;49.146;10.426;2022-07-29T17:17:50;3.25;;;2.45;;
74241;SDS011;62599;49.146;10.426;2022-07-29T17:20:17;3.22;;;3.03;;
74241;SDS011;62599;49.146;10.426;2022-07-29T17:22:42;3.50;;;2.80;;
74241;SDS011;62599;49.146;10.426;2022-07-29T17:30:40;2.83;;;2.58;;
74241;SDS011;62599;49.146;10.426;2022-07-29T17:33:06;2.60;;;2.40;;
74241;SDS011;62599;49.146;10.426;2022-07-29T17:35:31;4.30;;;2.70;;
74241;SDS011;62599;49.146;10.426;2022-07-29T17:38:15;2.78;;;2.58;;
74241;SDS011;62599;49.146;10.426;2022-07-29T17:40:40;4.63;;;2.17;;
74241;SDS011;62599;49.146;10.426;2022-07-29T17:43:06;2.35;;;2.15;;
74241;SDS011;62599;49.146;10.426;2022-07-29T17:45:33;2.30;;;2.10;;
74241;SDS011;62599;49.146;10.426;2022-07-29T17:47:58;2.23;;;2.13;;
74241;SDS011;62599;49.146;10.426;2022-07-29T17:50:32;2.40;;;2.07;;
74241;SDS011;62599;49.146;10.426;2022-07-29T17:52:58;2.90;;;2.70;;
74241;SDS011;62599;49.146;10.426;2022-07-29T17:55:34;2.63;;;2.43;;
74241;SDS011;62599;49.146;10.426;2022-07-29T17:57:59;2.00;;;1.90;;
74241;SDS011;62599;49.146;10.426;2022-07-29T18:03:01;2.90;;;2.70;;
74241;SDS011;62599;49.146;10.426;2022-07-29T18:05:28;2.38;;;2.17;;
74241;SDS011;62599;49.146;10.426;2022-07-29T18:07:54;3.25;;;2.95;;
74241;SDS011;62599;49.146;10.426;2022-07-29T18:10:22;3.67;;;2.83;;
74241;SDS011;62599;49.146;10.426;2022-07-29T18:12:50;2.58;;;2.38;;
74241;SDS011;62599;49.146;10.426;2022-07-29T18:15:15;2.67;;;2.45;;
74241;SDS011;62599;49.146;10.426;2022-07-29T18:17:42;5.13;;;3.33;;
74241;SDS011;62599;49.146;10.426;2022-07-29T18:20:07;3.42;;;2.60;;
74241;SDS011;62599;49.146;10.426;2022-07-29T18:22:33;3.25;;;3.05;;
74241;SDS011;62599;49.146;10.426;2022-07-29T18:25:00;4.53;;;2.30;;
74241;SDS011;62599;49.146;10.426;2022-07-29T18:27:26;3.72;;;3.13;;
74241;SDS011;62599;49.146;10.426;2022-07-29T18:29:51;1.67;;;1.57;;
74241;SDS011;62599;49.146;10.426;2022-07-29T18:32:25;3.33;;;3.00;;
74241;SDS011;62599;49.146;10.426;2022-07-29T18:34:52;2.55;;;2.35;;
74241;SDS011;62599;49.146;10.426;2022-07-29T18:37:17;3.53;;;3.23;;
74241;SDS011;62599;49.146;10.426;2022-07-29T18:42:18;4.03;;;3.63;;
74241;SDS011;62599;49.146;10.426;2022-07-29T18:44:43;4.13;;;3.73;;
74241;SDS011;62599;49.146;10.426;2022-07-29T18:47:22;3.57;;;3.27;;
74241;SDS011;62599;49.146;10.426;2022-07-29T18:49:47;3.58;;;3.28;;
74241;SDS011;62599;49.146;10.426;2022-07-29T18:52:12;3.27;;;2.97;;
74241;SDS011;62599;49.146;10.426;2022-07-29T18:54:44;4.37;;;3.63;;
74241;SDS011;62599;49.146;10.426;2022-07-29T18:57:09;2.28;;;1.98;;
74241;SDS011;62599;49.146;10.426;2022-07-29T19:02:09;2.45;;;2.25;;
74241;SDS011;62599;49.146;10.426;2022-07-29T19:04:34;3.50;;;2.40;;
74241;SDS011;62599;49.146;10.426;2022-07-29T19:07:09;2.43;;;2.23;;
74241;SDS011;62599;49.146;10.426;2022-07-29T19:09:34;2.47;;;2.28;;
74241;SDS011;62599;49.146;10.426;2022-07-29T19:14:31;2.80;;;2.20;;
74241;SDS011;62599;49.146;10.426;2022-07-29T19:19:33;8.48;;;2.50;;
74241;SDS011;62599;49.146;10.426;2022-07-29T19:21:58;2.73;;;2.53;;
74241;SDS011;62599;49.146;10.426;2022-07-29T19:24:23;3.58;;;3.28;;
74241;SDS011;62599;49.146;10.426;2022-07-29T19:26:55;6.40;;;3.30;;
74241;SDS011;62599;49.146;10.426;2022-07-29T19:29:21;4.03;;;2.40;;
74241;SDS011;62599;49.146;10.426;2022-07-29T19:31:51;5.70;;;3.47;;
74241;SDS011;62599;49.146;10.426;2022-07-29T19:34:16;3.20;;;2.90;;
74241;SDS011;62599;49.146;10.426;2022-07-29T19:36:43;3.73;;;3.30;;
74241;SDS011;62599;49.146;10.426;2022-07-29T19:39:11;3.05;;;2.10;;
74241;SDS011;62599;49.146;10.426;2022-07-29T19:41:36;5.57;;;3.72;;
74241;SDS011;62599;49.146;10.426;2022-07-29T19:44:15;5.10;;;3.35;;
74241;SDS011;62599;49.146;10.426;2022-07-29T19:46:40;3.97;;;3.58;;
74241;SDS011;62599;49.146;10.426;2022-07-29T19:49:06;3.83;;;3.50;;
74241;SDS011;62599;49.146;10.426;2022-07-29T19:51:39;5.13;;;4.17;;
74241;SDS011;62599;49.146;10.426;2022-07-29T19:54:05;4.05;;;2.60;;
74241;SDS011;62599;49.146;10.426;2022-07-29T19:56:31;4.97;;;4.00;;
74241;SDS011;62599;49.146;10.426;2022-07-29T19:59:13;4.33;;;3.87;;
74241;SDS011;62599;49.146;10.426;2022-07-29T20:01:39;4.30;;;3.67;;
74241;SDS011;62599;49.146;10.426;2022-07-29T20:04:04;5.40;;;3.73;;
74241;SDS011;62599;49.146;10.426;2022-07-29T20:06:29;8.23;;;4.03;;
74241;SDS011;62599;49.146;10.426;2022-07-29T20:08:55;4.30;;;3.77;;
74241;SDS011;62599;49.146;10.426;2022-07-29T20:11:23;7.03;;;4.68;;
74241;SDS011;62599;49.146;10.426;2022-07-29T20:13:52;5.30;;;4.80;;
74241;SDS011;62599;49.146;10.426;2022-07-29T20:16:20;6.10;;;4.60;;
74241;SDS011;62599;49.146;10.426;2022-07-29T20:21:14;6.65;;;4.93;;
74241;SDS011;62599;49.146;10.426;2022-07-29T20:23:40;4.90;;;4.40;;
74241;SDS011;62599;49.146;10.426;2022-07-29T20:28:34;4.90;;;4.40;;
74241;SDS011;62599;49.146;10.426;2022-07-29T20:30:59;4.93;;;4.47;;
74241;SDS011;62599;49.146;10.426;2022-07-29T20:33:24;5.72;;;4.85;;
74241;SDS011;62599;49.146;10.426;2022-07-29T20:36:03;5.90;;;5.30;;
74241;SDS011;62599;49.146;10.426;2022-07-29T20:38:30;5.35;;;4.85;;
74241;SDS011;62599;49.146;10.426;2022-07-29T20:40:55;5.22;;;4.70;;
74241;SDS011;62599;49.146;10.426;2022-07-29T20:43:33;6.45;;;5.13;;
74241;SDS011;62599;49.146;10.426;2022-07-29T20:45:58;6.28;;;5.68;;
74241;SDS011;62599;49.146;10.426;2022-07-29T20:48:35;5.50;;;5.00;;
74241;SDS011;62599;49.146;10.426;2022-07-29T20:53:36;6.10;;;4.22;;
74241;SDS011;62599;49.146;10.426;2022-07-29T20:56:01;5.65;;;5.15;;
74241;SDS011;62599;49.146;10.426;2022-07-29T20:58:35;6.47;;;5.20;;
74241;SDS011;62599;49.146;10.426;2022-07-29T21:01:00;6.15;;;4.95;;
74241;SDS011;62599;49.146;10.426;2022-07-29T21:03:25;5.93;;;4.83;;
74241;SDS011;62599;49.146;10.426;2022-07-29T21:05:53;6.70;;;4.78;;
74241;SDS011;62599;49.146;10.426;2022-07-29T21:08:18;6.50;;;3.95;;
74241;SDS011;62599;49.146;10.426;2022-07-29T21:10:43;6.57;;;5.33;;
74241;SDS011;62599;49.146;10.426;2022-07-29T21:13:09;5.60;;;3.65;;
74241;SDS011;62599;49.146;10.426;2022-07-29T21:15:34;5.82;;;4.95;;
74241;SDS011;62599;49.146;10.426;2022-07-29T21:18:06;5.33;;;4.83;;
74241;SDS011;62599;49.146;10.426;2022-07-29T21:20:50;5.75;;;5.13;;
74241;SDS011;62599;49.146;10.426;2022-07-29T21:23:15;5.40;;;4.90;;
74241;SDS011;62599;49.146;10.426;2022-07-29T21:25:41;5.50;;;4.93;;
74241;SDS011;62599;49.146;10.426;2022-07-29T21:28:07;4.63;;;4.07;;
74241;SDS011;62599;49.146;10.426;2022-07-29T21:30:58;5.13;;;4.60;;
74241;SDS011;62599;49.146;10.426;2022-07-29T21:33:25;4.57;;;4.00;;
74241;SDS011;62599;49.146;10.426;2022-07-29T21:35:50;4.38;;;3.97;;
74241;SDS011;62599;49.146;10.426;2022-07-29T21:38:16;4.77;;;4.37;;
74241;SDS011;62599;49.146;10.426;2022-07-29T21:43:30;5.45;;;4.65;;
74241;SDS011;62599;49.146;10.426;2022-07-29T21:45:56;3.92;;;3.40;;
74241;SDS011;62599;49.146;10.426;2022-07-29T21:48:22;5.35;;;4.85;;
74241;SDS011;62599;49.146;10.426;2022-07-29T21:50:48;4.95;;;4.30;;
74241;SDS011;62599;49.146;10.426;2022-07-29T21:53:13;5.68;;;4.80;;
74241;SDS011;62599;49.146;10.426;2022-07-29T21:55:39;7.68;;;4.57;;
74241;SDS011;62599;49.146;10.426;2022-07-29T21:58:10;4.70;;;4.23;;
74241;SDS011;62599;49.146;10.426;2022-07-29T22:00:36;5.25;;;3.58;;
74241;SDS011;62599;49.146;10.426;2022-07-29T22:03:02;4.68;;;4.28;;
74241;SDS011;62599;49.146;10.426;2022-07-29T22:08:02;5.63;;;5.03;;
74241;SDS011;62599;49.146;10.426;2022-07-29T22:10:35;8.43;;;4.47;;
74241;SDS011;62599;49.146;10.426;2022-07-29T22:13:03;4.32;;;3.72;;
74241;SDS011;62599;49.146;10.426;2022-07-29T22:15:29;4.20;;;3.65;;
74241;SDS011;62599;49.146;10.426;2022-07-29T22:17:54;5.13;;;4.38;;
74241;SDS011;62599;49.146;10.426;2022-07-29T22:20:20;4.30;;;3.90;;
74241;SDS011;62599;49.146;10.426;2022-07-29T22:22:47;4.47;;;4.07;;
74241;SDS011;62599;49.146;10.426;2022-07-29T22:25:13;4.88;;;4.25;;
74241;SDS011;62599;49.146;10.426;2022-07-29T22:27:38;4.75;;;4.28;;
74241;SDS011;62599;49.146;10.426;2022-07-29T22:30:05;4.63;;;4.23;;
74241;SDS011;62599;49.146;10.426;2022-07-29T22:32:31;4.75;;;4.25;;
74241;SDS011;62599;49.146;10.426;2022-07-29T22:34:56;4.73;;;4.30;;
74241;SDS011;62599;49.146;10.426;2022-07-29T22:37:22;5.17;;;4.67;;
74241;SDS011;62599;49.146;10.426;2022-07-29T22:42:50;6.25;;;5.65;;
74241;SDS011;62599;49.146;10.426;2022-07-29T22:45:28;5.00;;;4.57;;
74241;SDS011;62599;49.146;10.426;2022-07-29T22:47:54;5.22;;;4.72;;
74241;SDS011;62599;49.146;10.426;2022-07-29T22:50:19;5.73;;;4.23;;
74241;SDS011;62599;49.146;10.426;2022-07-29T22:55:47;6.63;;;5.93;;
74241;SDS011;62599;49.146;10.426;2022-07-29T23:01:22;4.45;;;4.03;;
74241;SDS011;62599;49.146;10.426;2022-07-29T23:03:50;5.07;;;4.57;;
74241;SDS011;62599;49.146;10.426;2022-07-29T23:06:15;4.73;;;4.33;;
74241;SDS011;62599;49.146;10.426;2022-07-29T23:08:41;4.72;;;4.32;;
74241;SDS011;62599;49.146;10.426;2022-07-29T23:11:06;4.90;;;4.50;;
74241;SDS011;62599;49.146;10.426;2022-07-29T23:13:31;4.53;;;4.13;;
74241;SDS011;62599;49.146;10.426;2022-07-29T23:15:56;5.40;;;4.90;;
74241;SDS011;62599;49.146;10.426;2022-07-29T23:18:37;6.53;;;4.57;;
74241;SDS011;62599;49.146;10.426;2022-07-29T23:21:02;5.18;;;4.68;;
74241;SDS011;62599;49.146;10.426;2022-07-29T23:23:46;4.13;;;3.77;;
74241;SDS011;62599;49.146;10.426;2022-07-29T23:26:12;5.30;;;4.75;;
74241;SDS011;62599;49.146;10.426;2022-07-29T23:28:40;4.45;;;4.03;;
74241;SDS011;62599;49.146;10.426;2022-07-29T23:33:50;4.80;;;4.30;;
74241;SDS011;62599;49.146;10.426;2022-07-29T23:36:15;4.60;;;4.20;;
74241;SDS011;62599;49.146;10.426;2022-07-29T23:38:42;4.63;;;4.13;;
74241;SDS011;62599;49.146;10.426;2022-07-29T23:41:08;5.53;;;5.03;;
74241;SDS011;62599;49.146;10.426;2022-07-29T23:43:34;3.97;;;3.58;;
74241;SDS011;62599;49.146;10.426;2022-07-29T23:46:15;6.80;;;5.82;;
74241;SDS011;62599;49.146;10.426;2022-07-29T23:48:40;5.60;;;5.03;;
74241;SDS011;62599;49.146;10.426;2022-07-29T23:51:05;5.97;;;5.20;;
74241;SDS011;62599;49.146;10.426;2022-07-29T23:56:19;5.25;;;4.43;;
74241;SDS011;62599;49.146;10.426;2022-07-29T23:58:45;6.17;;;5.57;;
